createdAt,value
2023-05-25T00:01:00.601Z,6.53
2023-05-25T00:03:31.853Z,5.57
2023-05-25T00:06:01.851Z,6.33
2023-05-25T00:08:30.147Z,6.90
2023-05-25T00:10:57.586Z,5.90
2023-05-25T00:13:25.232Z,5.83
2023-05-25T00:15:53.035Z,6.43
2023-05-25T00:18:20.454Z,6.50
2023-05-25T00:20:47.986Z,6.00
2023-05-25T00:23:15.713Z,6.30
2023-05-25T00:25:43.307Z,6.07
2023-05-25T00:28:12.222Z,5.70
2023-05-25T00:30:40.151Z,5.80
2023-05-25T00:33:07.689Z,5.77
2023-05-25T00:35:35.085Z,6.07
2023-05-25T00:38:02.874Z,5.40
2023-05-25T00:40:30.301Z,6.80
2023-05-25T00:42:59.561Z,6.10
2023-05-25T00:45:27.291Z,6.20
2023-05-25T00:47:54.747Z,5.53
2023-05-25T00:50:42.011Z,6.03
2023-05-25T00:53:11.760Z,5.77
2023-05-25T00:56:11.944Z,5.33
2023-05-25T00:58:43.937Z,5.70
2023-05-25T01:01:13.747Z,6.17
2023-05-25T01:03:45.922Z,5.60
2023-05-25T01:06:17.773Z,5.97
2023-05-25T01:09:00.895Z,5.37
2023-05-25T01:11:33.492Z,5.53
2023-05-25T01:14:02.027Z,5.53
2023-05-25T01:16:30.278Z,6.15
2023-05-25T01:18:57.982Z,5.45
2023-05-25T01:21:27.292Z,6.07
2023-05-25T01:24:22.556Z,5.60
2023-05-25T01:26:58.281Z,5.70
2023-05-25T01:29:28.418Z,6.23
2023-05-25T01:31:58.669Z,5.77
2023-05-25T01:34:27.110Z,6.03
2023-05-25T01:36:54.637Z,6.13
2023-05-25T01:39:24.084Z,5.17
2023-05-25T01:44:19.322Z,5.37
2023-05-25T01:46:53.933Z,5.18
2023-05-25T01:49:30.526Z,6.33
2023-05-25T01:52:13.122Z,5.63
2023-05-25T01:55:02.740Z,5.80
2023-05-25T01:57:36.391Z,5.20
2023-05-25T02:00:05.094Z,5.17
2023-05-25T02:02:45.846Z,5.30
2023-05-25T02:05:14.129Z,5.53
2023-05-25T02:07:41.659Z,6.03
2023-05-25T02:10:09.480Z,5.50
2023-05-25T02:12:37.347Z,5.83
2023-05-25T02:15:05.562Z,6.10
2023-05-25T02:17:33.052Z,5.57
2023-05-25T02:20:01.051Z,6.10
2023-05-25T02:22:29.178Z,5.57
2023-05-25T02:24:56.512Z,5.90
2023-05-25T02:27:24.221Z,6.00
2023-05-25T02:29:53.316Z,5.80
2023-05-25T02:34:49.349Z,5.62
2023-05-25T02:37:17.815Z,6.03
2023-05-25T02:39:45.164Z,6.23
2023-05-25T02:42:13.089Z,6.07
2023-05-25T02:44:40.638Z,5.53
2023-05-25T02:47:08.464Z,5.93
2023-05-25T02:49:36.957Z,5.40
2023-05-25T02:52:05.271Z,5.73
2023-05-25T02:54:32.684Z,4.87
2023-05-25T02:57:00.403Z,6.10
2023-05-25T02:59:27.837Z,5.03
2023-05-25T03:01:55.151Z,5.53
2023-05-25T03:04:22.818Z,5.67
2023-05-25T03:06:50.138Z,5.40
2023-05-25T03:09:18.214Z,5.20
2023-05-25T03:11:46.154Z,6.65
2023-05-25T03:14:13.774Z,5.23
2023-05-25T03:16:41.873Z,5.67
2023-05-25T03:19:10.855Z,5.70
2023-05-25T03:21:38.746Z,6.37
2023-05-25T03:24:07.069Z,5.47
2023-05-25T03:26:34.957Z,6.72
2023-05-25T03:29:03.098Z,4.87
2023-05-25T03:31:30.628Z,6.60
2023-05-25T03:33:58.430Z,7.83
2023-05-25T03:36:28.590Z,6.17
2023-05-25T03:38:55.996Z,6.07
2023-05-25T03:41:23.990Z,6.10
2023-05-25T03:43:52.433Z,5.55
2023-05-25T03:46:20.351Z,5.50
2023-05-25T03:48:48.207Z,6.37
2023-05-25T03:51:16.608Z,6.10
2023-05-25T03:53:45.620Z,5.83
2023-05-25T03:56:13.312Z,6.20
2023-05-25T03:58:40.930Z,6.13
2023-05-25T04:01:09.875Z,5.33
2023-05-25T04:03:37.864Z,5.77
2023-05-25T04:06:05.421Z,14.30
2023-05-25T04:08:34.188Z,6.60
2023-05-25T04:13:29.673Z,6.63
2023-05-25T04:15:58.204Z,6.43
2023-05-25T04:18:26.927Z,5.97
2023-05-25T04:20:55.674Z,6.80
2023-05-25T04:25:52.304Z,6.40
2023-05-25T04:28:23.192Z,7.47
2023-05-25T04:30:51.439Z,6.30
2023-05-25T04:33:39.007Z,6.23
2023-05-25T04:36:30.078Z,6.17
2023-05-25T04:39:08.594Z,6.30
2023-05-25T04:41:38.087Z,6.20
2023-05-25T04:44:10.442Z,6.53
2023-05-25T04:46:45.276Z,6.13
2023-05-25T04:49:13.930Z,6.67
2023-05-25T04:51:41.561Z,6.33
2023-05-25T04:54:13.165Z,6.90
2023-05-25T04:56:47.359Z,5.47
2023-05-25T04:59:15.217Z,6.30
2023-05-25T05:01:44.947Z,6.15
2023-05-25T05:06:41.382Z,6.77
2023-05-25T05:09:49.149Z,6.30
2023-05-25T05:12:12.174Z,6.90
2023-05-25T05:14:43.390Z,7.00
2023-05-25T05:17:11.256Z,6.70
2023-05-25T05:19:38.925Z,6.93
2023-05-25T05:24:39.569Z,7.50
2023-05-25T05:27:15.763Z,7.73
2023-05-25T05:30:12.460Z,7.90
2023-05-25T05:33:03.867Z,7.85
2023-05-25T05:35:32.159Z,7.13
2023-05-25T05:38:03.802Z,10.93
2023-05-25T05:40:33.581Z,8.70
2023-05-25T05:43:02.658Z,9.47
2023-05-25T05:46:10.159Z,8.20
2023-05-25T05:48:54.608Z,7.70
2023-05-25T05:51:27.704Z,8.70
2023-05-25T05:53:56.487Z,7.27
2023-05-25T05:56:25.153Z,8.35
2023-05-25T05:58:54.780Z,9.13
2023-05-25T06:01:26.500Z,7.53
2023-05-25T06:03:59.576Z,6.57
2023-05-25T06:06:29.172Z,7.23
2023-05-25T06:09:03.869Z,6.50
2023-05-25T06:11:40.376Z,6.70
2023-05-25T06:14:09.002Z,6.17
2023-05-25T06:16:38.783Z,6.07
2023-05-25T06:19:06.366Z,5.45
2023-05-25T06:21:43.179Z,5.78
2023-05-25T06:24:13.757Z,6.00
2023-05-25T06:26:43.107Z,5.60
2023-05-25T06:29:10.659Z,5.55
2023-05-25T06:31:38.467Z,6.10
2023-05-25T06:34:06.649Z,6.18
2023-05-25T06:36:34.067Z,6.35
2023-05-25T06:39:01.760Z,6.15
2023-05-25T06:41:30.064Z,5.90
2023-05-25T06:43:57.555Z,5.47
2023-05-25T06:46:25.221Z,5.93
2023-05-25T06:48:53.713Z,4.72
2023-05-25T06:51:21.739Z,6.03
2023-05-25T06:53:49.330Z,6.03
2023-05-25T06:56:17.025Z,4.93
2023-05-25T06:58:49.562Z,5.78
2023-05-25T07:01:18.120Z,5.18
2023-05-25T07:03:45.913Z,6.35
2023-05-25T07:06:17.338Z,4.65
2023-05-25T07:08:49.377Z,5.00
2023-05-25T07:11:26.198Z,4.95
2023-05-25T07:13:56.895Z,5.25
2023-05-25T07:16:25.793Z,4.68
2023-05-25T07:19:15.612Z,5.15
2023-05-25T07:21:49.176Z,5.60
2023-05-25T07:24:23.583Z,5.60
2023-05-25T07:26:53.619Z,5.30
2023-05-25T07:29:27.099Z,4.80
2023-05-25T07:32:05.150Z,5.57
2023-05-25T07:37:14.699Z,4.78
2023-05-25T07:39:44.197Z,5.03
2023-05-25T07:42:13.664Z,5.07
2023-05-25T07:44:43.007Z,4.95
2023-05-25T07:47:15.771Z,5.37
2023-05-25T07:49:43.464Z,4.90
2023-05-25T07:52:21.825Z,5.12
2023-05-25T07:54:55.345Z,5.10
2023-05-25T07:57:24.527Z,6.12
2023-05-25T08:00:02.916Z,5.78
2023-05-25T08:02:42.708Z,5.10
2023-05-25T08:05:11.021Z,5.32
2023-05-25T08:07:42.941Z,5.78
2023-05-25T08:10:11.964Z,5.12
2023-05-25T08:12:48.852Z,5.87
2023-05-25T08:15:22.756Z,6.87
2023-05-25T08:18:04.909Z,7.40
2023-05-25T08:20:43.208Z,8.18
2023-05-25T08:23:10.913Z,7.93
2023-05-25T08:25:38.601Z,9.15
2023-05-25T08:28:54.177Z,8.82
2023-05-25T08:31:15.069Z,8.55
2023-05-25T08:33:45.750Z,8.95
2023-05-25T08:36:16.528Z,8.90
2023-05-25T08:38:44.517Z,9.48
2023-05-25T08:41:13.653Z,9.13
2023-05-25T08:43:42.377Z,8.70
2023-05-25T08:46:10.627Z,8.27
2023-05-25T08:48:42.680Z,9.70
2023-05-25T08:51:17.705Z,8.63
2023-05-25T08:53:46.159Z,9.30
2023-05-25T08:56:20.734Z,8.32
2023-05-25T08:58:59.647Z,8.75
2023-05-25T09:01:32.084Z,8.38
2023-05-25T09:04:09.265Z,8.93
2023-05-25T09:06:40.704Z,8.40
2023-05-25T09:09:09.611Z,6.97
2023-05-25T09:11:41.629Z,8.32
2023-05-25T09:14:11.775Z,7.75
2023-05-25T09:16:40.744Z,8.52
2023-05-25T09:19:08.515Z,8.85
2023-05-25T09:21:36.369Z,9.20
2023-05-25T09:24:04.606Z,8.52
2023-05-25T09:26:33.056Z,8.47
2023-05-25T09:29:02.275Z,9.02
2023-05-25T09:31:31.790Z,9.48
2023-05-25T09:36:28.565Z,9.27
2023-05-25T09:38:59.243Z,9.75
2023-05-25T09:41:29.405Z,10.63
2023-05-25T09:44:09.598Z,10.02
2023-05-25T09:46:40.399Z,9.60
2023-05-25T09:49:09.649Z,9.77
2023-05-25T09:51:37.227Z,9.07
2023-05-25T09:54:09.042Z,10.40
2023-05-25T09:56:36.895Z,8.00
2023-05-25T09:59:04.266Z,16.10
2023-05-25T10:01:33.715Z,17.08
2023-05-25T10:06:52.676Z,9.80
2023-05-25T10:09:21.208Z,11.07
2023-05-25T10:11:53.017Z,6.85
2023-05-25T10:14:29.512Z,5.37
2023-05-25T10:17:04.377Z,5.85
2023-05-25T10:19:43.327Z,5.05
2023-05-25T10:22:22.271Z,3.83
2023-05-25T10:24:58.822Z,4.28
2023-05-25T10:27:34.350Z,3.70
2023-05-25T10:30:03.121Z,3.42
2023-05-25T10:32:33.096Z,4.12
2023-05-25T10:35:02.165Z,3.22
2023-05-25T10:37:31.193Z,3.55
2023-05-25T10:40:01.628Z,3.58
2023-05-25T10:42:30.436Z,3.40
2023-05-25T10:44:58.326Z,3.90
2023-05-25T10:47:26.714Z,3.55
2023-05-25T10:49:55.985Z,3.70
2023-05-25T10:52:31.717Z,3.40
2023-05-25T10:55:05.410Z,3.90
2023-05-25T10:57:33.187Z,3.50
2023-05-25T11:00:09.067Z,3.40
2023-05-25T11:02:57.913Z,3.62
2023-05-25T11:08:11.631Z,3.00
2023-05-25T11:11:05.277Z,3.35
2023-05-25T11:13:37.876Z,3.30
2023-05-25T11:16:24.946Z,3.70
2023-05-25T11:18:55.989Z,3.87
2023-05-25T11:21:30.548Z,3.80
2023-05-25T11:24:02.836Z,3.65
2023-05-25T11:26:34.100Z,3.70
2023-05-25T11:29:12.517Z,3.60
2023-05-25T11:31:43.375Z,3.92
2023-05-25T11:34:12.167Z,5.18
2023-05-25T11:36:39.929Z,4.07
2023-05-25T11:39:16.964Z,3.67
2023-05-25T11:42:11.528Z,3.70
2023-05-25T11:44:39.282Z,3.90
2023-05-25T11:47:14.736Z,4.43
2023-05-25T11:49:44.338Z,4.65
2023-05-25T11:52:23.160Z,3.90
2023-05-25T11:54:50.677Z,3.50
2023-05-25T11:57:20.649Z,3.50
2023-05-25T11:59:50.409Z,3.35
2023-05-25T12:02:18.574Z,4.25
2023-05-25T12:04:55.388Z,3.58
2023-05-25T12:07:23.855Z,3.65
2023-05-25T12:12:21.433Z,4.50
2023-05-25T12:14:52.309Z,4.18
2023-05-25T12:17:22.192Z,3.95
2023-05-25T12:19:50.117Z,3.60
2023-05-25T12:22:17.783Z,4.22
2023-05-25T12:24:45.632Z,4.10
2023-05-25T12:27:21.145Z,4.40
2023-05-25T12:29:49.528Z,3.70
2023-05-25T12:32:17.075Z,3.75
2023-05-25T12:34:44.551Z,3.78
2023-05-25T12:37:22.587Z,4.03
2023-05-25T12:39:50.878Z,4.20
2023-05-25T12:42:18.724Z,4.53
2023-05-25T12:44:46.908Z,4.78
2023-05-25T12:47:16.852Z,4.03
2023-05-25T12:49:47.296Z,5.22
2023-05-25T12:52:37.278Z,4.45
2023-05-25T12:55:30.372Z,4.78
2023-05-25T12:58:02.448Z,4.90
2023-05-25T13:00:37.246Z,4.45
2023-05-25T13:03:08.382Z,4.80
2023-05-25T13:05:38.360Z,3.87
2023-05-25T13:08:07.251Z,3.80
2023-05-25T13:13:04.747Z,4.90
2023-05-25T13:17:59.634Z,4.22
2023-05-25T13:20:30.807Z,3.42
2023-05-25T13:22:58.657Z,3.87
2023-05-25T13:25:28.073Z,3.90
2023-05-25T13:27:58.246Z,3.62
2023-05-25T13:30:26.591Z,3.30
2023-05-25T13:32:54.302Z,4.00
2023-05-25T13:35:40.573Z,3.75
2023-05-25T13:38:07.995Z,2.90
2023-05-25T13:40:35.654Z,3.40
2023-05-25T13:43:03.368Z,2.80
2023-05-25T13:45:30.876Z,3.10
2023-05-25T13:47:59.147Z,2.95
2023-05-25T13:50:26.788Z,2.92
2023-05-25T13:52:54.459Z,2.87
2023-05-25T13:55:23.175Z,2.92
2023-05-25T13:57:52.046Z,3.62
2023-05-25T14:00:20.438Z,3.08
2023-05-25T14:02:48.311Z,3.08
2023-05-25T14:05:15.854Z,3.33
2023-05-25T14:07:44.762Z,3.30
2023-05-25T14:10:12.464Z,2.83
2023-05-25T14:12:39.963Z,3.62
2023-05-25T14:15:08.277Z,3.97
2023-05-25T14:17:36.002Z,5.57
2023-05-25T14:20:04.509Z,3.15
2023-05-25T14:22:32.765Z,3.00
2023-05-25T14:25:00.480Z,3.12
2023-05-25T14:27:27.878Z,2.60
2023-05-25T14:29:55.218Z,2.62
2023-05-25T14:32:22.893Z,2.00
2023-05-25T14:34:50.295Z,2.37
2023-05-25T14:37:18.180Z,2.28
2023-05-25T14:39:45.900Z,2.20
2023-05-25T14:42:13.314Z,2.35
2023-05-25T14:44:40.862Z,2.67
2023-05-25T14:47:08.914Z,1.92
2023-05-25T14:49:36.324Z,2.08
2023-05-25T14:52:04.067Z,2.50
2023-05-25T14:54:31.744Z,2.30
2023-05-25T14:56:59.026Z,2.65
2023-05-25T14:59:26.445Z,2.50
2023-05-25T15:01:54.326Z,2.67
2023-05-25T15:04:22.001Z,2.33
2023-05-25T15:06:49.461Z,2.28
2023-05-25T15:09:19.507Z,1.80
2023-05-25T15:11:46.906Z,1.80
2023-05-25T15:14:14.380Z,2.53
2023-05-25T15:16:42.768Z,2.27
2023-05-25T15:19:12.697Z,1.80
2023-05-25T15:21:41.658Z,1.98
2023-05-25T15:24:09.206Z,2.00
2023-05-25T15:26:36.576Z,1.90
2023-05-25T15:29:04.304Z,4.37
2023-05-25T15:31:31.813Z,2.70
2023-05-25T15:34:00.872Z,1.87
2023-05-25T15:36:28.900Z,3.30
2023-05-25T15:38:56.532Z,2.20
2023-05-25T15:41:24.036Z,2.28
2023-05-25T15:43:54.798Z,3.90
2023-05-25T15:46:22.341Z,2.58
2023-05-25T15:48:49.880Z,2.00
2023-05-25T15:51:17.573Z,2.42
2023-05-25T15:53:44.951Z,2.60
2023-05-25T15:56:12.377Z,2.15
2023-05-25T15:58:40.064Z,1.90
2023-05-25T16:01:07.544Z,2.10
2023-05-25T16:03:35.320Z,2.10
2023-05-25T16:06:02.944Z,2.12
2023-05-25T16:08:30.315Z,2.00
2023-05-25T16:10:58.081Z,2.60
2023-05-25T16:13:25.441Z,2.70
2023-05-25T16:15:52.935Z,2.17
2023-05-25T16:18:20.853Z,2.73
2023-05-25T16:20:49.317Z,2.28
2023-05-25T16:23:17.073Z,2.22
2023-05-25T16:25:44.861Z,2.47
2023-05-25T16:28:12.326Z,2.37
2023-05-25T16:30:39.665Z,2.35
2023-05-25T16:33:07.486Z,2.45
2023-05-25T16:35:34.894Z,2.40
2023-05-25T16:38:02.455Z,2.28
2023-05-25T16:40:31.692Z,2.20
2023-05-25T16:45:26.735Z,2.20
2023-05-25T16:47:54.581Z,2.20
2023-05-25T16:50:21.997Z,2.12
2023-05-25T16:52:49.692Z,2.20
2023-05-25T16:55:17.899Z,2.50
2023-05-25T16:57:45.387Z,2.50
2023-05-25T17:00:13.448Z,2.75
2023-05-25T17:02:41.257Z,2.72
2023-05-25T17:05:09.567Z,2.70
2023-05-25T17:07:38.001Z,2.50
2023-05-25T17:12:43.850Z,2.62
2023-05-25T17:15:13.932Z,2.62
2023-05-25T17:17:41.489Z,2.72
2023-05-25T17:20:09.379Z,2.67
2023-05-25T17:22:38.017Z,3.37
2023-05-25T17:25:11.610Z,2.30
2023-05-25T17:27:39.275Z,2.65
2023-05-25T17:30:07.269Z,2.90
2023-05-25T17:32:34.666Z,2.87
2023-05-25T17:35:02.483Z,2.55
2023-05-25T17:37:30.095Z,2.92
2023-05-25T17:39:57.637Z,2.90
2023-05-25T17:42:25.471Z,3.10
2023-05-25T17:44:53.433Z,3.03
2023-05-25T17:47:21.085Z,3.08
2023-05-25T17:49:49.319Z,3.20
2023-05-25T17:52:16.650Z,3.40
2023-05-25T17:54:51.306Z,3.15
2023-05-25T17:57:19.003Z,2.45
2023-05-25T17:59:46.461Z,2.95
2023-05-25T18:02:13.952Z,3.37
2023-05-25T18:04:41.857Z,2.53
2023-05-25T18:07:09.281Z,2.83
2023-05-25T18:09:36.753Z,2.47
2023-05-25T18:12:04.590Z,3.37
2023-05-25T18:14:35.465Z,3.35
2023-05-25T18:17:03.002Z,5.80
2023-05-25T18:19:31.081Z,5.80
2023-05-25T18:21:58.509Z,5.55
2023-05-25T18:24:25.985Z,7.62
2023-05-25T18:26:53.944Z,5.62
2023-05-25T18:29:21.345Z,5.80
2023-05-25T18:31:49.037Z,5.87
2023-05-25T18:34:17.050Z,5.72
2023-05-25T18:36:44.510Z,7.93
2023-05-25T18:39:12.377Z,8.25
2023-05-25T18:41:40.305Z,6.70
2023-05-25T18:44:08.302Z,5.30
2023-05-25T18:46:38.320Z,5.35
2023-05-25T18:49:06.194Z,4.72
2023-05-25T18:51:34.159Z,5.32
2023-05-25T18:54:01.595Z,5.50
2023-05-25T18:56:29.411Z,4.80
2023-05-25T18:58:57.407Z,4.85
2023-05-25T19:01:25.798Z,5.97
2023-05-25T19:03:55.403Z,5.43
2023-05-25T19:06:24.262Z,5.03
2023-05-25T19:08:51.670Z,4.65
2023-05-25T19:11:20.294Z,4.03
2023-05-25T19:13:47.741Z,4.93
2023-05-25T19:18:43.131Z,5.60
2023-05-25T19:21:10.551Z,4.77
2023-05-25T19:23:38.054Z,4.43
2023-05-25T19:26:05.917Z,4.20
2023-05-25T19:28:33.377Z,3.83
2023-05-25T19:31:01.239Z,4.90
2023-05-25T19:33:29.041Z,5.35
2023-05-25T19:35:56.430Z,4.80
2023-05-25T19:38:26.564Z,4.87
2023-05-25T19:40:56.759Z,4.90
2023-05-25T19:43:24.250Z,4.80
2023-05-25T19:45:51.653Z,4.23
2023-05-25T19:48:20.491Z,5.10
2023-05-25T19:50:47.955Z,3.83
2023-05-25T19:53:15.343Z,5.03
2023-05-25T19:55:43.240Z,3.83
2023-05-25T19:58:11.312Z,5.63
2023-05-25T20:00:38.668Z,4.50
2023-05-25T20:03:06.650Z,4.60
2023-05-25T20:05:34.232Z,4.50
2023-05-25T20:08:01.627Z,5.70
2023-05-25T20:10:29.777Z,6.53
2023-05-25T20:12:57.161Z,5.13
2023-05-25T20:15:24.540Z,5.20
2023-05-25T20:17:52.391Z,4.93
2023-05-25T20:20:19.918Z,4.53
2023-05-25T20:22:47.414Z,4.90
2023-05-25T20:25:15.170Z,4.80
2023-05-25T20:27:42.662Z,4.30
2023-05-25T20:30:10.913Z,4.33
2023-05-25T20:32:38.803Z,4.70
2023-05-25T20:35:07.180Z,4.43
2023-05-25T20:37:34.527Z,4.30
2023-05-25T20:40:02.483Z,4.47
2023-05-25T20:42:29.897Z,4.80
2023-05-25T20:44:57.361Z,4.20
2023-05-25T20:47:25.138Z,4.50
2023-05-25T20:49:52.584Z,4.50
2023-05-25T20:52:21.315Z,4.17
2023-05-25T20:57:16.483Z,4.73
2023-05-25T20:59:43.966Z,4.50
2023-05-25T21:02:11.775Z,4.30
2023-05-25T21:04:39.112Z,4.80
2023-05-25T21:07:06.629Z,7.17
2023-05-25T21:09:34.275Z,4.73
2023-05-25T21:12:03.576Z,4.97
2023-05-25T21:14:31.080Z,3.77
2023-05-25T21:16:58.710Z,4.17
2023-05-25T21:19:26.080Z,4.20
2023-05-25T21:21:53.738Z,5.17
2023-05-25T21:24:21.611Z,4.43
2023-05-25T21:26:48.874Z,5.27
2023-05-25T21:29:16.146Z,6.13
2023-05-25T21:31:43.976Z,4.23
2023-05-25T21:34:11.490Z,6.83
2023-05-25T21:36:38.935Z,7.23
2023-05-25T21:39:06.674Z,4.30
2023-05-25T21:41:34.132Z,4.33
2023-05-25T21:44:01.615Z,9.50
2023-05-25T21:46:29.465Z,5.97
2023-05-25T21:48:57.206Z,5.10
2023-05-25T21:51:24.670Z,4.30
2023-05-25T21:53:52.255Z,4.70
2023-05-25T21:56:19.619Z,6.67
2023-05-25T21:58:47.094Z,11.97
2023-05-25T22:01:14.817Z,8.77
2023-05-25T22:03:42.845Z,6.70
2023-05-25T22:06:10.506Z,5.63
2023-05-25T22:08:37.830Z,6.10
2023-05-25T22:11:05.571Z,7.23
2023-05-25T22:13:33.201Z,6.60
2023-05-25T22:16:00.760Z,4.13
2023-05-25T22:18:28.430Z,5.60
2023-05-25T22:20:55.844Z,3.90
2023-05-25T22:23:23.275Z,4.00
2023-05-25T22:25:50.879Z,4.00
2023-05-25T22:28:18.270Z,5.27
2023-05-25T22:30:45.761Z,4.07
2023-05-25T22:33:13.475Z,4.37
2023-05-25T22:35:40.866Z,4.67
2023-05-25T22:38:08.267Z,4.47
2023-05-25T22:40:35.950Z,4.00
2023-05-25T22:43:03.280Z,3.53
2023-05-25T22:45:30.704Z,5.13
2023-05-25T22:47:58.463Z,5.60
2023-05-25T22:50:25.877Z,4.50
2023-05-25T22:52:53.224Z,5.20
2023-05-25T22:55:21.748Z,5.53
2023-05-25T22:57:49.082Z,7.53
2023-05-25T23:00:16.546Z,6.03
2023-05-25T23:02:44.364Z,5.87
2023-05-25T23:05:11.727Z,4.90
2023-05-25T23:07:39.176Z,4.80
2023-05-25T23:10:08.383Z,4.53
2023-05-25T23:12:35.799Z,4.78
2023-05-25T23:15:04.265Z,4.93
2023-05-25T23:17:32.860Z,4.43
2023-05-25T23:20:00.366Z,4.60
2023-05-25T23:22:28.182Z,4.90
2023-05-25T23:24:56.059Z,5.35
2023-05-25T23:27:23.414Z,5.80
2023-05-25T23:29:50.789Z,5.70
2023-05-25T23:32:18.398Z,4.77
2023-05-25T23:34:45.800Z,5.83
2023-05-25T23:37:13.151Z,5.97
2023-05-25T23:39:40.776Z,6.63
2023-05-25T23:42:08.345Z,5.83
2023-05-25T23:44:35.739Z,5.87
2023-05-25T23:47:03.616Z,5.90
2023-05-25T23:49:31.412Z,5.93
2023-05-25T23:51:58.738Z,6.00
2023-05-25T23:54:26.379Z,7.53
2023-05-25T23:56:53.919Z,9.67
2023-05-25T23:59:21.272Z,6.83
